sensor_id;sensor_type;location;lat;lon;timestamp;temperature;humidity
54938;DHT22;52756;52.826;6.214;2023-08-20T00:01:57;18.70;74.20
54938;DHT22;52756;52.826;6.214;2023-08-20T00:04:25;18.70;74.30
54938;DHT22;52756;52.826;6.214;2023-08-20T00:06:52;18.70;74.30
54938;DHT22;52756;52.826;6.214;2023-08-20T00:09:18;18.70;74.30
54938;DHT22;52756;52.826;6.214;2023-08-20T00:11:43;18.60;74.10
54938;DHT22;52756;52.826;6.214;2023-08-20T00:14:16;18.60;74.20
54938;DHT22;52756;52.826;6.214;2023-08-20T00:16:42;18.60;74.20
54938;DHT22;52756;52.826;6.214;2023-08-20T00:19:09;18.60;74.30
54938;DHT22;52756;52.826;6.214;2023-08-20T00:21:35;18.60;74.30
54938;DHT22;52756;52.826;6.214;2023-08-20T00:24:01;18.70;74.40
54938;DHT22;52756;52.826;6.214;2023-08-20T00:26:27;18.50;74.20
54938;DHT22;52756;52.826;6.214;2023-08-20T00:28:53;18.50;74.30
54938;DHT22;52756;52.826;6.214;2023-08-20T00:31:18;18.50;74.40
54938;DHT22;52756;52.826;6.214;2023-08-20T00:33:44;18.50;74.50
54938;DHT22;52756;52.826;6.214;2023-08-20T00:36:10;18.50;74.60
54938;DHT22;52756;52.826;6.214;2023-08-20T00:38:36;18.50;74.60
54938;DHT22;52756;52.826;6.214;2023-08-20T00:41:01;18.50;74.50
54938;DHT22;52756;52.826;6.214;2023-08-20T00:43:27;18.40;74.30
54938;DHT22;52756;52.826;6.214;2023-08-20T00:45:53;18.40;74.30
54938;DHT22;52756;52.826;6.214;2023-08-20T00:48:19;18.40;74.10
54938;DHT22;52756;52.826;6.214;2023-08-20T00:50:45;18.40;74.00
54938;DHT22;52756;52.826;6.214;2023-08-20T00:53:12;18.30;73.80
54938;DHT22;52756;52.826;6.214;2023-08-20T00:55:39;18.30;73.90
54938;DHT22;52756;52.826;6.214;2023-08-20T00:58:05;18.30;74.10
54938;DHT22;52756;52.826;6.214;2023-08-20T01:00:31;18.30;74.20
54938;DHT22;52756;52.826;6.214;2023-08-20T01:02:57;18.20;74.30
54938;DHT22;52756;52.826;6.214;2023-08-20T01:05:23;18.20;74.40
54938;DHT22;52756;52.826;6.214;2023-08-20T01:08:01;18.20;74.50
54938;DHT22;52756;52.826;6.214;2023-08-20T01:13:19;18.10;74.50
54938;DHT22;52756;52.826;6.214;2023-08-20T01:15:45;18.10;74.50
54938;DHT22;52756;52.826;6.214;2023-08-20T01:18:10;18.10;74.60
54938;DHT22;52756;52.826;6.214;2023-08-20T01:20:41;18.10;74.60
54938;DHT22;52756;52.826;6.214;2023-08-20T01:26:13;18.00;74.30
54938;DHT22;52756;52.826;6.214;2023-08-20T01:28:43;18.00;74.20
54938;DHT22;52756;52.826;6.214;2023-08-20T01:31:10;18.00;74.40
54938;DHT22;52756;52.826;6.214;2023-08-20T01:33:37;18.00;74.60
54938;DHT22;52756;52.826;6.214;2023-08-20T01:36:06;18.00;74.70
54938;DHT22;52756;52.826;6.214;2023-08-20T01:38:35;18.00;74.80
54938;DHT22;52756;52.826;6.214;2023-08-20T01:41:01;17.90;74.80
54938;DHT22;52756;52.826;6.214;2023-08-20T01:43:27;17.90;75.10
54938;DHT22;52756;52.826;6.214;2023-08-20T01:45:53;17.90;75.20
54938;DHT22;52756;52.826;6.214;2023-08-20T01:48:18;17.90;75.20
54938;DHT22;52756;52.826;6.214;2023-08-20T01:50:44;18.00;75.30
54938;DHT22;52756;52.826;6.214;2023-08-20T01:53:11;17.90;75.20
54938;DHT22;52756;52.826;6.214;2023-08-20T01:55:37;17.90;75.30
54938;DHT22;52756;52.826;6.214;2023-08-20T01:58:03;17.90;75.30
54938;DHT22;52756;52.826;6.214;2023-08-20T02:00:29;17.90;75.30
54938;DHT22;52756;52.826;6.214;2023-08-20T02:02:56;17.90;75.40
54938;DHT22;52756;52.826;6.214;2023-08-20T02:05:22;17.90;75.40
54938;DHT22;52756;52.826;6.214;2023-08-20T02:07:47;17.90;75.30
54938;DHT22;52756;52.826;6.214;2023-08-20T02:10:13;17.90;75.30
54938;DHT22;52756;52.826;6.214;2023-08-20T02:12:40;17.90;75.20
54938;DHT22;52756;52.826;6.214;2023-08-20T02:15:07;17.90;75.10
54938;DHT22;52756;52.826;6.214;2023-08-20T02:17:33;17.90;75.00
54938;DHT22;52756;52.826;6.214;2023-08-20T02:19:58;17.90;74.50
54938;DHT22;52756;52.826;6.214;2023-08-20T02:22:24;17.80;74.10
54938;DHT22;52756;52.826;6.214;2023-08-20T02:24:50;17.80;74.10
54938;DHT22;52756;52.826;6.214;2023-08-20T02:27:15;17.80;74.00
54938;DHT22;52756;52.826;6.214;2023-08-20T02:29:41;17.80;73.80
54938;DHT22;52756;52.826;6.214;2023-08-20T02:32:07;17.70;73.70
54938;DHT22;52756;52.826;6.214;2023-08-20T02:34:32;17.70;73.70
54938;DHT22;52756;52.826;6.214;2023-08-20T02:36:58;17.70;73.80
54938;DHT22;52756;52.826;6.214;2023-08-20T02:39:24;17.70;74.30
54938;DHT22;52756;52.826;6.214;2023-08-20T02:41:50;17.60;73.40
54938;DHT22;52756;52.826;6.214;2023-08-20T02:44:16;17.60;73.10
54938;DHT22;52756;52.826;6.214;2023-08-20T02:46:42;17.60;73.40
54938;DHT22;52756;52.826;6.214;2023-08-20T02:49:10;17.60;73.90
54938;DHT22;52756;52.826;6.214;2023-08-20T02:51:35;17.50;74.10
54938;DHT22;52756;52.826;6.214;2023-08-20T02:54:01;17.50;74.40
54938;DHT22;52756;52.826;6.214;2023-08-20T02:56:27;17.50;74.60
54938;DHT22;52756;52.826;6.214;2023-08-20T02:58:53;17.40;74.70
54938;DHT22;52756;52.826;6.214;2023-08-20T03:01:23;17.40;74.80
54938;DHT22;52756;52.826;6.214;2023-08-20T03:03:49;17.40;75.10
54938;DHT22;52756;52.826;6.214;2023-08-20T03:06:15;17.30;75.20
54938;DHT22;52756;52.826;6.214;2023-08-20T03:08:40;17.30;75.30
54938;DHT22;52756;52.826;6.214;2023-08-20T03:11:06;17.30;75.30
54938;DHT22;52756;52.826;6.214;2023-08-20T03:13:32;17.30;75.40
54938;DHT22;52756;52.826;6.214;2023-08-20T03:15:58;17.30;75.60
54938;DHT22;52756;52.826;6.214;2023-08-20T03:18:23;17.20;75.60
54938;DHT22;52756;52.826;6.214;2023-08-20T03:20:49;17.20;75.80
54938;DHT22;52756;52.826;6.214;2023-08-20T03:23:15;17.20;76.00
54938;DHT22;52756;52.826;6.214;2023-08-20T03:25:40;17.20;76.10
54938;DHT22;52756;52.826;6.214;2023-08-20T03:28:06;17.20;76.20
54938;DHT22;52756;52.826;6.214;2023-08-20T03:30:32;17.20;76.20
54938;DHT22;52756;52.826;6.214;2023-08-20T03:32:59;17.20;76.20
54938;DHT22;52756;52.826;6.214;2023-08-20T03:35:25;17.20;76.30
54938;DHT22;52756;52.826;6.214;2023-08-20T03:37:50;17.20;76.30
54938;DHT22;52756;52.826;6.214;2023-08-20T03:40:16;17.20;76.30
54938;DHT22;52756;52.826;6.214;2023-08-20T03:42:43;17.20;76.30
54938;DHT22;52756;52.826;6.214;2023-08-20T03:45:09;17.20;76.40
54938;DHT22;52756;52.826;6.214;2023-08-20T03:47:35;17.20;76.30
54938;DHT22;52756;52.826;6.214;2023-08-20T03:50:02;17.20;75.70
54938;DHT22;52756;52.826;6.214;2023-08-20T03:52:29;17.10;75.00
54938;DHT22;52756;52.826;6.214;2023-08-20T03:54:55;17.10;75.10
54938;DHT22;52756;52.826;6.214;2023-08-20T03:57:20;17.10;75.50
54938;DHT22;52756;52.826;6.214;2023-08-20T03:59:46;17.00;75.60
54938;DHT22;52756;52.826;6.214;2023-08-20T04:02:13;17.00;75.80
54938;DHT22;52756;52.826;6.214;2023-08-20T04:04:39;17.00;76.00
54938;DHT22;52756;52.826;6.214;2023-08-20T04:07:04;17.00;76.20
54938;DHT22;52756;52.826;6.214;2023-08-20T04:09:30;17.00;76.30
54938;DHT22;52756;52.826;6.214;2023-08-20T04:11:57;17.00;76.30
54938;DHT22;52756;52.826;6.214;2023-08-20T04:14:23;17.00;76.40
54938;DHT22;52756;52.826;6.214;2023-08-20T04:16:48;17.00;76.40
54938;DHT22;52756;52.826;6.214;2023-08-20T04:19:14;17.00;76.40
54938;DHT22;52756;52.826;6.214;2023-08-20T04:21:40;17.00;76.40
54938;DHT22;52756;52.826;6.214;2023-08-20T04:24:06;17.00;76.40
54938;DHT22;52756;52.826;6.214;2023-08-20T04:26:31;17.00;76.30
54938;DHT22;52756;52.826;6.214;2023-08-20T04:28:57;17.00;76.20
54938;DHT22;52756;52.826;6.214;2023-08-20T04:31:23;17.00;76.10
54938;DHT22;52756;52.826;6.214;2023-08-20T04:33:48;17.00;76.10
54938;DHT22;52756;52.826;6.214;2023-08-20T04:36:14;17.00;76.00
54938;DHT22;52756;52.826;6.214;2023-08-20T04:38:40;17.00;76.00
54938;DHT22;52756;52.826;6.214;2023-08-20T04:41:05;17.00;75.90
54938;DHT22;52756;52.826;6.214;2023-08-20T04:43:31;17.00;75.80
54938;DHT22;52756;52.826;6.214;2023-08-20T04:45:57;17.00;75.70
54938;DHT22;52756;52.826;6.214;2023-08-20T04:48:22;17.00;75.60
54938;DHT22;52756;52.826;6.214;2023-08-20T04:50:48;17.00;75.50
54938;DHT22;52756;52.826;6.214;2023-08-20T04:53:14;17.00;75.50
54938;DHT22;52756;52.826;6.214;2023-08-20T04:55:39;17.00;75.40
54938;DHT22;52756;52.826;6.214;2023-08-20T04:58:05;17.00;75.20
54938;DHT22;52756;52.826;6.214;2023-08-20T05:00:31;17.00;75.10
54938;DHT22;52756;52.826;6.214;2023-08-20T05:02:56;17.00;75.00
54938;DHT22;52756;52.826;6.214;2023-08-20T05:05:23;17.00;75.10
54938;DHT22;52756;52.826;6.214;2023-08-20T05:07:50;17.00;75.20
54938;DHT22;52756;52.826;6.214;2023-08-20T05:10:16;17.00;75.30
54938;DHT22;52756;52.826;6.214;2023-08-20T05:12:41;17.00;75.10
54938;DHT22;52756;52.826;6.214;2023-08-20T05:15:07;17.00;74.90
54938;DHT22;52756;52.826;6.214;2023-08-20T05:17:33;17.10;74.90
54938;DHT22;52756;52.826;6.214;2023-08-20T05:19:59;17.10;74.80
54938;DHT22;52756;52.826;6.214;2023-08-20T05:22:24;17.10;74.80
54938;DHT22;52756;52.826;6.214;2023-08-20T05:24:50;17.10;74.80
54938;DHT22;52756;52.826;6.214;2023-08-20T05:27:16;17.10;74.90
54938;DHT22;52756;52.826;6.214;2023-08-20T05:29:43;17.10;75.10
54938;DHT22;52756;52.826;6.214;2023-08-20T05:32:09;17.10;75.30
54938;DHT22;52756;52.826;6.214;2023-08-20T05:34:35;17.10;75.40
54938;DHT22;52756;52.826;6.214;2023-08-20T05:37:01;17.10;75.60
54938;DHT22;52756;52.826;6.214;2023-08-20T05:39:27;17.10;75.80
54938;DHT22;52756;52.826;6.214;2023-08-20T05:41:56;17.10;75.90
54938;DHT22;52756;52.826;6.214;2023-08-20T05:44:22;17.10;76.10
54938;DHT22;52756;52.826;6.214;2023-08-20T05:46:48;17.10;76.40
54938;DHT22;52756;52.826;6.214;2023-08-20T05:49:15;17.10;76.90
54938;DHT22;52756;52.826;6.214;2023-08-20T05:51:44;17.10;77.30
54938;DHT22;52756;52.826;6.214;2023-08-20T05:54:10;17.10;77.70
54938;DHT22;52756;52.826;6.214;2023-08-20T05:56:36;17.10;78.10
54938;DHT22;52756;52.826;6.214;2023-08-20T05:59:02;17.10;78.70
54938;DHT22;52756;52.826;6.214;2023-08-20T06:01:28;17.10;79.50
54938;DHT22;52756;52.826;6.214;2023-08-20T06:03:54;17.20;80.60
54938;DHT22;52756;52.826;6.214;2023-08-20T06:06:19;17.30;81.70
54938;DHT22;52756;52.826;6.214;2023-08-20T06:08:45;17.50;82.10
54938;DHT22;52756;52.826;6.214;2023-08-20T06:11:10;17.90;82.40
54938;DHT22;52756;52.826;6.214;2023-08-20T06:13:36;18.30;82.10
54938;DHT22;52756;52.826;6.214;2023-08-20T06:16:02;18.80;81.30
54938;DHT22;52756;52.826;6.214;2023-08-20T06:18:27;19.30;80.10
54938;DHT22;52756;52.826;6.214;2023-08-20T06:20:53;19.70;79.40
54938;DHT22;52756;52.826;6.214;2023-08-20T06:23:19;20.20;78.80
54938;DHT22;52756;52.826;6.214;2023-08-20T06:25:45;20.70;77.10
54938;DHT22;52756;52.826;6.214;2023-08-20T06:28:11;21.30;76.10
54938;DHT22;52756;52.826;6.214;2023-08-20T06:30:37;21.80;74.40
54938;DHT22;52756;52.826;6.214;2023-08-20T06:33:03;22.30;72.60
54938;DHT22;52756;52.826;6.214;2023-08-20T06:35:28;22.80;71.10
54938;DHT22;52756;52.826;6.214;2023-08-20T06:37:54;23.30;69.60
54938;DHT22;52756;52.826;6.214;2023-08-20T06:40:20;23.80;68.10
54938;DHT22;52756;52.826;6.214;2023-08-20T06:42:46;24.20;66.20
54938;DHT22;52756;52.826;6.214;2023-08-20T06:45:12;24.60;64.70
54938;DHT22;52756;52.826;6.214;2023-08-20T06:47:37;24.90;63.50
54938;DHT22;52756;52.826;6.214;2023-08-20T06:50:04;25.20;62.00
54938;DHT22;52756;52.826;6.214;2023-08-20T06:52:29;25.50;61.10
54938;DHT22;52756;52.826;6.214;2023-08-20T06:54:55;25.80;60.10
54938;DHT22;52756;52.826;6.214;2023-08-20T06:57:21;26.00;59.50
54938;DHT22;52756;52.826;6.214;2023-08-20T06:59:46;26.10;59.20
54938;DHT22;52756;52.826;6.214;2023-08-20T07:02:12;26.30;58.90
54938;DHT22;52756;52.826;6.214;2023-08-20T07:04:38;26.50;58.30
54938;DHT22;52756;52.826;6.214;2023-08-20T07:07:04;26.80;57.90
54938;DHT22;52756;52.826;6.214;2023-08-20T07:09:33;27.00;57.30
54938;DHT22;52756;52.826;6.214;2023-08-20T07:11:59;27.30;56.90
54938;DHT22;52756;52.826;6.214;2023-08-20T07:14:25;27.40;56.50
54938;DHT22;52756;52.826;6.214;2023-08-20T07:16:51;27.60;56.00
54938;DHT22;52756;52.826;6.214;2023-08-20T07:19:16;27.80;55.50
54938;DHT22;52756;52.826;6.214;2023-08-20T07:21:42;28.00;55.40
54938;DHT22;52756;52.826;6.214;2023-08-20T07:24:08;28.30;54.90
54938;DHT22;52756;52.826;6.214;2023-08-20T07:26:33;28.40;54.20
54938;DHT22;52756;52.826;6.214;2023-08-20T07:28:59;28.50;53.90
54938;DHT22;52756;52.826;6.214;2023-08-20T07:31:30;28.70;53.80
54938;DHT22;52756;52.826;6.214;2023-08-20T07:33:57;28.70;53.30
54938;DHT22;52756;52.826;6.214;2023-08-20T07:36:24;28.80;53.30
54938;DHT22;52756;52.826;6.214;2023-08-20T07:38:51;28.90;53.30
54938;DHT22;52756;52.826;6.214;2023-08-20T07:41:18;29.00;53.00
54938;DHT22;52756;52.826;6.214;2023-08-20T07:43:45;29.10;52.50
54938;DHT22;52756;52.826;6.214;2023-08-20T07:46:12;29.20;52.10
54938;DHT22;52756;52.826;6.214;2023-08-20T07:48:38;29.20;51.90
54938;DHT22;52756;52.826;6.214;2023-08-20T07:51:04;29.20;51.50
54938;DHT22;52756;52.826;6.214;2023-08-20T07:53:30;29.20;51.40
54938;DHT22;52756;52.826;6.214;2023-08-20T07:55:56;29.20;51.50
54938;DHT22;52756;52.826;6.214;2023-08-20T07:58:22;29.20;51.70
54938;DHT22;52756;52.826;6.214;2023-08-20T08:00:48;29.30;51.60
54938;DHT22;52756;52.826;6.214;2023-08-20T08:03:14;29.40;51.10
54938;DHT22;52756;52.826;6.214;2023-08-20T08:05:49;29.40;51.20
54938;DHT22;52756;52.826;6.214;2023-08-20T08:08:18;29.40;51.10
54938;DHT22;52756;52.826;6.214;2023-08-20T08:10:45;29.40;50.90
54938;DHT22;52756;52.826;6.214;2023-08-20T08:13:15;29.50;50.40
54938;DHT22;52756;52.826;6.214;2023-08-20T08:15:41;29.60;50.00
54938;DHT22;52756;52.826;6.214;2023-08-20T08:18:07;29.70;49.60
54938;DHT22;52756;52.826;6.214;2023-08-20T08:20:34;29.80;49.60
54938;DHT22;52756;52.826;6.214;2023-08-20T08:23:00;29.90;49.20
54938;DHT22;52756;52.826;6.214;2023-08-20T08:25:26;30.00;48.80
54938;DHT22;52756;52.826;6.214;2023-08-20T08:27:52;30.10;49.00
54938;DHT22;52756;52.826;6.214;2023-08-20T08:30:17;30.10;48.60
54938;DHT22;52756;52.826;6.214;2023-08-20T08:32:43;30.20;48.40
54938;DHT22;52756;52.826;6.214;2023-08-20T08:35:09;30.30;48.40
54938;DHT22;52756;52.826;6.214;2023-08-20T08:37:35;30.30;48.00
54938;DHT22;52756;52.826;6.214;2023-08-20T08:40:02;30.40;47.40
54938;DHT22;52756;52.826;6.214;2023-08-20T08:42:32;30.40;47.30
54938;DHT22;52756;52.826;6.214;2023-08-20T08:45:00;30.50;47.30
54938;DHT22;52756;52.826;6.214;2023-08-20T08:47:26;30.60;47.20
54938;DHT22;52756;52.826;6.214;2023-08-20T08:49:56;30.60;46.90
54938;DHT22;52756;52.826;6.214;2023-08-20T08:52:25;30.70;47.20
54938;DHT22;52756;52.826;6.214;2023-08-20T08:54:52;30.70;47.10
54938;DHT22;52756;52.826;6.214;2023-08-20T08:57:18;30.90;46.80
54938;DHT22;52756;52.826;6.214;2023-08-20T08:59:44;30.90;46.00
54938;DHT22;52756;52.826;6.214;2023-08-20T09:02:11;31.00;45.80
54938;DHT22;52756;52.826;6.214;2023-08-20T09:04:41;31.10;45.50
54938;DHT22;52756;52.826;6.214;2023-08-20T09:07:14;31.10;45.20
54938;DHT22;52756;52.826;6.214;2023-08-20T09:09:44;31.20;45.20
54938;DHT22;52756;52.826;6.214;2023-08-20T09:12:14;31.30;45.20
54938;DHT22;52756;52.826;6.214;2023-08-20T09:14:46;31.30;45.40
54938;DHT22;52756;52.826;6.214;2023-08-20T09:17:12;31.40;45.30
54938;DHT22;52756;52.826;6.214;2023-08-20T09:19:38;31.40;45.00
54938;DHT22;52756;52.826;6.214;2023-08-20T09:22:04;31.40;44.90
54938;DHT22;52756;52.826;6.214;2023-08-20T09:24:38;31.60;45.10
54938;DHT22;52756;52.826;6.214;2023-08-20T09:27:04;31.60;45.20
54938;DHT22;52756;52.826;6.214;2023-08-20T09:29:51;31.70;45.50
54938;DHT22;52756;52.826;6.214;2023-08-20T09:32:19;31.80;45.60
54938;DHT22;52756;52.826;6.214;2023-08-20T09:34:45;31.80;44.50
54938;DHT22;52756;52.826;6.214;2023-08-20T09:37:15;31.80;44.70
54938;DHT22;52756;52.826;6.214;2023-08-20T09:39:41;31.90;44.20
54938;DHT22;52756;52.826;6.214;2023-08-20T09:42:08;31.90;43.90
54938;DHT22;52756;52.826;6.214;2023-08-20T09:44:39;31.90;43.70
54938;DHT22;52756;52.826;6.214;2023-08-20T09:47:16;31.90;43.50
54938;DHT22;52756;52.826;6.214;2023-08-20T09:49:43;31.90;44.10
54938;DHT22;52756;52.826;6.214;2023-08-20T09:52:11;31.90;43.60
54938;DHT22;52756;52.826;6.214;2023-08-20T09:57:36;32.00;43.80
54938;DHT22;52756;52.826;6.214;2023-08-20T10:00:04;32.00;43.50
54938;DHT22;52756;52.826;6.214;2023-08-20T10:02:35;31.90;42.60
54938;DHT22;52756;52.826;6.214;2023-08-20T10:05:02;31.80;42.30
54938;DHT22;52756;52.826;6.214;2023-08-20T10:07:29;31.70;42.20
54938;DHT22;52756;52.826;6.214;2023-08-20T10:10:00;31.60;42.50
54938;DHT22;52756;52.826;6.214;2023-08-20T10:12:27;31.50;43.00
54938;DHT22;52756;52.826;6.214;2023-08-20T10:14:54;31.40;42.80
54938;DHT22;52756;52.826;6.214;2023-08-20T10:17:22;31.40;42.60
54938;DHT22;52756;52.826;6.214;2023-08-20T10:19:48;31.40;42.60
54938;DHT22;52756;52.826;6.214;2023-08-20T10:22:14;31.40;42.70
54938;DHT22;52756;52.826;6.214;2023-08-20T10:24:51;31.30;42.80
54938;DHT22;52756;52.826;6.214;2023-08-20T10:27:28;31.40;43.50
54938;DHT22;52756;52.826;6.214;2023-08-20T10:29:58;31.40;43.10
54938;DHT22;52756;52.826;6.214;2023-08-20T10:32:57;31.40;43.10
54938;DHT22;52756;52.826;6.214;2023-08-20T10:35:30;31.50;43.90
54938;DHT22;52756;52.826;6.214;2023-08-20T10:38:15;31.50;44.00
54938;DHT22;52756;52.826;6.214;2023-08-20T10:48:32;31.60;43.60
54938;DHT22;52756;52.826;6.214;2023-08-20T10:51:12;31.60;43.50
54938;DHT22;52756;52.826;6.214;2023-08-20T10:53:40;31.70;43.70
54938;DHT22;52756;52.826;6.214;2023-08-20T10:56:16;31.70;43.60
54938;DHT22;52756;52.826;6.214;2023-08-20T10:58:46;31.70;43.10
54938;DHT22;52756;52.826;6.214;2023-08-20T11:03:45;31.80;42.50
54938;DHT22;52756;52.826;6.214;2023-08-20T11:06:11;31.80;42.20
54938;DHT22;52756;52.826;6.214;2023-08-20T11:08:38;31.90;42.30
54938;DHT22;52756;52.826;6.214;2023-08-20T11:11:05;32.00;42.30
54938;DHT22;52756;52.826;6.214;2023-08-20T11:13:34;32.00;42.00
54938;DHT22;52756;52.826;6.214;2023-08-20T11:16:02;32.00;41.50
54938;DHT22;52756;52.826;6.214;2023-08-20T11:18:29;32.00;41.90
54938;DHT22;52756;52.826;6.214;2023-08-20T11:20:55;32.00;41.70
54938;DHT22;52756;52.826;6.214;2023-08-20T11:23:22;32.00;41.40
54938;DHT22;52756;52.826;6.214;2023-08-20T11:25:48;32.10;41.20
54938;DHT22;52756;52.826;6.214;2023-08-20T11:28:13;32.10;41.30
54938;DHT22;52756;52.826;6.214;2023-08-20T11:30:39;32.10;41.10
54938;DHT22;52756;52.826;6.214;2023-08-20T11:33:05;32.20;40.90
54938;DHT22;52756;52.826;6.214;2023-08-20T11:35:32;32.20;41.00
54938;DHT22;52756;52.826;6.214;2023-08-20T11:37:58;32.10;41.10
54938;DHT22;52756;52.826;6.214;2023-08-20T11:40:24;32.20;41.30
54938;DHT22;52756;52.826;6.214;2023-08-20T11:42:50;32.20;41.20
54938;DHT22;52756;52.826;6.214;2023-08-20T11:45:16;32.20;41.10
54938;DHT22;52756;52.826;6.214;2023-08-20T11:47:42;32.20;41.30
54938;DHT22;52756;52.826;6.214;2023-08-20T11:50:09;32.20;41.40
54938;DHT22;52756;52.826;6.214;2023-08-20T11:52:36;32.20;40.90
54938;DHT22;52756;52.826;6.214;2023-08-20T11:55:02;32.20;41.10
54938;DHT22;52756;52.826;6.214;2023-08-20T11:57:29;32.20;40.90
54938;DHT22;52756;52.826;6.214;2023-08-20T11:59:59;32.30;41.30
54938;DHT22;52756;52.826;6.214;2023-08-20T12:02:26;32.30;41.30
54938;DHT22;52756;52.826;6.214;2023-08-20T12:04:55;32.30;41.40
54938;DHT22;52756;52.826;6.214;2023-08-20T12:07:25;32.20;41.50
54938;DHT22;52756;52.826;6.214;2023-08-20T12:09:55;32.20;41.70
54938;DHT22;52756;52.826;6.214;2023-08-20T12:12:22;32.20;41.50
54938;DHT22;52756;52.826;6.214;2023-08-20T12:14:48;32.20;41.40
54938;DHT22;52756;52.826;6.214;2023-08-20T12:17:18;32.20;41.20
54938;DHT22;52756;52.826;6.214;2023-08-20T12:19:45;32.20;41.00
54938;DHT22;52756;52.826;6.214;2023-08-20T12:22:11;32.20;41.30
54938;DHT22;52756;52.826;6.214;2023-08-20T12:24:37;32.10;41.20
54938;DHT22;52756;52.826;6.214;2023-08-20T12:27:03;32.10;41.30
54938;DHT22;52756;52.826;6.214;2023-08-20T12:29:29;32.00;41.50
54938;DHT22;52756;52.826;6.214;2023-08-20T12:31:55;31.90;40.90
54938;DHT22;52756;52.826;6.214;2023-08-20T12:34:21;31.80;40.70
54938;DHT22;52756;52.826;6.214;2023-08-20T12:36:51;31.70;41.20
54938;DHT22;52756;52.826;6.214;2023-08-20T12:39:17;31.50;41.60
54938;DHT22;52756;52.826;6.214;2023-08-20T12:41:42;31.40;41.90
54938;DHT22;52756;52.826;6.214;2023-08-20T12:44:08;31.40;41.90
54938;DHT22;52756;52.826;6.214;2023-08-20T12:46:34;31.20;41.60
54938;DHT22;52756;52.826;6.214;2023-08-20T12:49:00;31.20;41.60
54938;DHT22;52756;52.826;6.214;2023-08-20T12:51:26;31.10;42.00
54938;DHT22;52756;52.826;6.214;2023-08-20T12:53:52;31.00;42.40
54938;DHT22;52756;52.826;6.214;2023-08-20T12:56:18;30.90;41.80
54938;DHT22;52756;52.826;6.214;2023-08-20T12:58:44;30.80;41.30
54938;DHT22;52756;52.826;6.214;2023-08-20T13:01:09;30.70;41.00
54938;DHT22;52756;52.826;6.214;2023-08-20T13:03:35;30.60;41.00
54938;DHT22;52756;52.826;6.214;2023-08-20T13:06:03;30.50;40.90
54938;DHT22;52756;52.826;6.214;2023-08-20T13:08:29;30.50;41.50
54938;DHT22;52756;52.826;6.214;2023-08-20T13:10:57;30.40;41.40
54938;DHT22;52756;52.826;6.214;2023-08-20T13:13:25;30.30;42.30
54938;DHT22;52756;52.826;6.214;2023-08-20T13:15:51;30.20;42.60
54938;DHT22;52756;52.826;6.214;2023-08-20T13:18:18;30.20;42.60
54938;DHT22;52756;52.826;6.214;2023-08-20T13:20:44;30.10;42.80
54938;DHT22;52756;52.826;6.214;2023-08-20T13:23:10;30.10;43.70
54938;DHT22;52756;52.826;6.214;2023-08-20T13:25:36;30.00;43.00
54938;DHT22;52756;52.826;6.214;2023-08-20T13:28:02;29.90;42.90
54938;DHT22;52756;52.826;6.214;2023-08-20T13:30:28;29.80;43.10
54938;DHT22;52756;52.826;6.214;2023-08-20T13:32:54;29.70;43.00
54938;DHT22;52756;52.826;6.214;2023-08-20T13:35:20;29.60;43.00
54938;DHT22;52756;52.826;6.214;2023-08-20T13:37:46;29.50;43.00
54938;DHT22;52756;52.826;6.214;2023-08-20T13:40:11;29.50;43.50
54938;DHT22;52756;52.826;6.214;2023-08-20T13:42:37;29.50;43.60
54938;DHT22;52756;52.826;6.214;2023-08-20T13:45:03;29.40;43.00
54938;DHT22;52756;52.826;6.214;2023-08-20T13:47:29;29.40;43.30
54938;DHT22;52756;52.826;6.214;2023-08-20T13:49:55;29.40;43.80
54938;DHT22;52756;52.826;6.214;2023-08-20T13:52:21;29.40;43.60
54938;DHT22;52756;52.826;6.214;2023-08-20T13:54:46;29.40;43.60
54938;DHT22;52756;52.826;6.214;2023-08-20T13:57:12;29.40;43.70
54938;DHT22;52756;52.826;6.214;2023-08-20T13:59:38;29.40;43.70
54938;DHT22;52756;52.826;6.214;2023-08-20T14:02:04;29.50;43.80
54938;DHT22;52756;52.826;6.214;2023-08-20T14:04:30;29.50;43.80
54938;DHT22;52756;52.826;6.214;2023-08-20T14:06:56;29.50;43.70
54938;DHT22;52756;52.826;6.214;2023-08-20T14:09:22;29.50;43.40
54938;DHT22;52756;52.826;6.214;2023-08-20T14:11:47;29.50;43.20
54938;DHT22;52756;52.826;6.214;2023-08-20T14:14:13;29.60;43.80
54938;DHT22;52756;52.826;6.214;2023-08-20T14:16:39;29.60;44.00
54938;DHT22;52756;52.826;6.214;2023-08-20T14:19:05;29.60;43.90
54938;DHT22;52756;52.826;6.214;2023-08-20T14:21:31;29.60;43.70
54938;DHT22;52756;52.826;6.214;2023-08-20T14:23:56;29.60;43.30
54938;DHT22;52756;52.826;6.214;2023-08-20T14:26:22;29.60;43.60
54938;DHT22;52756;52.826;6.214;2023-08-20T14:28:49;29.70;43.70
54938;DHT22;52756;52.826;6.214;2023-08-20T14:31:14;29.70;44.00
54938;DHT22;52756;52.826;6.214;2023-08-20T14:33:40;29.70;43.80
54938;DHT22;52756;52.826;6.214;2023-08-20T14:36:06;29.70;44.20
54938;DHT22;52756;52.826;6.214;2023-08-20T14:38:32;29.60;44.00
54938;DHT22;52756;52.826;6.214;2023-08-20T14:41:01;29.60;44.30
54938;DHT22;52756;52.826;6.214;2023-08-20T14:43:28;29.60;44.70
54938;DHT22;52756;52.826;6.214;2023-08-20T14:45:54;29.60;44.80
54938;DHT22;52756;52.826;6.214;2023-08-20T14:48:21;29.60;45.00
54938;DHT22;52756;52.826;6.214;2023-08-20T14:50:47;29.50;44.60
54938;DHT22;52756;52.826;6.214;2023-08-20T14:53:13;29.50;44.40
54938;DHT22;52756;52.826;6.214;2023-08-20T14:55:39;29.50;44.40
54938;DHT22;52756;52.826;6.214;2023-08-20T14:58:05;29.50;44.40
54938;DHT22;52756;52.826;6.214;2023-08-20T15:00:34;29.50;44.10
54938;DHT22;52756;52.826;6.214;2023-08-20T15:03:00;29.50;44.30
54938;DHT22;52756;52.826;6.214;2023-08-20T15:05:27;29.50;44.20
54938;DHT22;52756;52.826;6.214;2023-08-20T15:07:52;29.50;43.10
54938;DHT22;52756;52.826;6.214;2023-08-20T15:10:19;29.50;43.30
54938;DHT22;52756;52.826;6.214;2023-08-20T15:12:45;29.50;44.30
54938;DHT22;52756;52.826;6.214;2023-08-20T15:15:11;29.50;43.90
54938;DHT22;52756;52.826;6.214;2023-08-20T15:17:37;29.50;43.30
54938;DHT22;52756;52.826;6.214;2023-08-20T15:20:04;29.50;43.20
54938;DHT22;52756;52.826;6.214;2023-08-20T15:22:36;29.50;43.10
54938;DHT22;52756;52.826;6.214;2023-08-20T15:25:03;29.50;43.50
54938;DHT22;52756;52.826;6.214;2023-08-20T15:27:38;29.50;44.00
54938;DHT22;52756;52.826;6.214;2023-08-20T15:30:04;29.50;44.00
54938;DHT22;52756;52.826;6.214;2023-08-20T15:32:32;29.50;44.00
54938;DHT22;52756;52.826;6.214;2023-08-20T15:34:57;29.60;44.10
54938;DHT22;52756;52.826;6.214;2023-08-20T15:37:23;29.60;44.00
54938;DHT22;52756;52.826;6.214;2023-08-20T15:39:49;29.60;43.50
54938;DHT22;52756;52.826;6.214;2023-08-20T15:42:14;29.70;43.90
54938;DHT22;52756;52.826;6.214;2023-08-20T15:44:40;29.70;44.00
54938;DHT22;52756;52.826;6.214;2023-08-20T15:47:07;29.70;44.20